Abbott, New Mexico
Current Conditions -  °F | °C
As of 11:53 AM on Thursday 18 Dec 2014 (Local Time) from KRTN Reporting Station
Clear Clear  
Wind Chill:   Ceiling: Unl
Heat Index:   Visibility: 10mi
Dew Point: -7°   Wind: 5mph
Humidity: 41%   Direction: 150°SSE
Pressure: 30.02"   Gusts: NA
Location:  36.3883°N, 104.381°W
Report Text: KRTN 181853Z AUTO 15004KT 10SM CLR 06/M07 A3002 RMK AO2 SLP166 T00561067
Loading
Personal Weather Stations






























Interactive Weather Map New forecast layout! Learn more

10-Day Weather Forecast

Advertisements
Track Severe Weather on mobile